DTL2904 WPDL-AYPY
Flight info
| Callsign | DTL2904 |
|---|---|
| Flight time | 2h 53m |
| Altitude | 35000 |
| Route | ATSEV2 BACAU Z12 ELBIS DCT TATAP J199 PEBTA B598 ESKIM DCT GUMBU GUMBU1 |
| Aircraft | A320/M-SDE3FGHIRWY/LB1 |
Departure
| Time | 2026-05-05 20:51 |
|---|---|
| Airport | Presidente Nicolau Lobato International Airport (WPDL) |
Arrival
| Time | 2026-05-05 23:44 |
|---|---|
| Airport | Port Moresby Jacksons International Airport (AYPY) |
| Time | Latitude | Longitude | Altitude | Speed | Heading |
|---|---|---|---|---|---|
| 2026-05-05 20:40 | -8.54821 | 125.52463 | 27 ft | 0 kts | 212° |
| 2026-05-05 20:47 | -8.54824 | 125.52456 | 23 ft | 2 kts | 265° |
| 2026-05-05 20:47 | -8.54799 | 125.52436 | 28 ft | 9 kts | 291° |
| 2026-05-05 20:48 | -8.54756 | 125.52362 | 26 ft | 13 kts | 340° |
| 2026-05-05 20:48 | -8.54696 | 125.52332 | 24 ft | 8 kts | 321° |
| 2026-05-05 20:48 | -8.54695 | 125.52264 | 26 ft | 15 kts | 262° |
| 2026-05-05 20:48 | -8.54722 | 125.52142 | 26 ft | 24 kts | 256° |
| 2026-05-05 20:49 | -8.54769 | 125.51946 | 26 ft | 30 kts | 256° |
| 2026-05-05 20:49 | -8.54807 | 125.51760 | 27 ft | 23 kts | 256° |
| 2026-05-05 20:49 | -8.54844 | 125.51666 | 27 ft | 3 kts | 325° |
| 2026-05-05 20:49 | -8.54825 | 125.51690 | 27 ft | 7 kts | 64° |
| 2026-05-05 20:50 | -8.54804 | 125.51772 | 27 ft | 33 kts | 76° |
| 2026-05-05 20:50 | -8.54743 | 125.52048 | 24 ft | 87 kts | 78° |
| 2026-05-05 20:50 | -8.54474 | 125.53229 | 44 ft | 164 kts | 80° |
| 2026-05-05 20:50 | -8.54211 | 125.54355 | 716 ft | 163 kts | 78° |
| 2026-05-05 20:51 | -8.53703 | 125.55349 | 1470 ft | 164 kts | 49° |
| 2026-05-05 20:51 | -8.52871 | 125.56161 | 2074 ft | 164 kts | 43° |
| 2026-05-05 20:51 | -8.51981 | 125.56937 | 2268 ft | 180 kts | 44° |
| 2026-05-05 20:51 | -8.50980 | 125.57805 | 2400 ft | 199 kts | 44° |
| 2026-05-05 20:52 | -8.49875 | 125.58776 | 2531 ft | 222 kts | 44° |
| 2026-05-05 20:52 | -8.48672 | 125.59849 | 2763 ft | 242 kts | 44° |
| 2026-05-05 20:52 | -8.47355 | 125.61036 | 3062 ft | 263 kts | 44° |
| 2026-05-05 20:52 | -8.45972 | 125.62295 | 3707 ft | 270 kts | 45° |
| 2026-05-05 20:53 | -8.44573 | 125.63577 | 4483 ft | 272 kts | 46° |
| 2026-05-05 20:53 | -8.43169 | 125.64874 | 5228 ft | 274 kts | 48° |
| 2026-05-05 20:53 | -8.42031 | 125.66380 | 5998 ft | 268 kts | 68° |
| 2026-05-05 20:53 | -8.41575 | 125.68178 | 6721 ft | 265 kts | 90° |
| 2026-05-05 20:54 | -8.41859 | 125.70002 | 7386 ft | 266 kts | 108° |
| 2026-05-05 20:54 | -8.42457 | 125.71785 | 8016 ft | 270 kts | 109° |
| 2026-05-05 20:54 | -8.43071 | 125.73596 | 8626 ft | 275 kts | 109° |
| 2026-05-05 20:54 | -8.43694 | 125.75435 | 9242 ft | 279 kts | 109° |
| 2026-05-05 20:55 | -8.44321 | 125.77306 | 9865 ft | 283 kts | 109° |
| 2026-05-05 20:55 | -8.44962 | 125.79229 | 10178 ft | 298 kts | 109° |
| 2026-05-05 20:55 | -8.45637 | 125.81255 | 10297 ft | 318 kts | 109° |
| 2026-05-05 20:55 | -8.46370 | 125.83463 | 10423 ft | 337 kts | 109° |
| 2026-05-05 20:56 | -8.47133 | 125.85761 | 10538 ft | 354 kts | 109° |
| 2026-05-05 20:56 | -8.47922 | 125.88139 | 10656 ft | 369 kts | 109° |
| 2026-05-05 20:56 | -8.48755 | 125.90647 | 10792 ft | 384 kts | 109° |
| 2026-05-05 20:56 | -8.49620 | 125.93244 | 10996 ft | 394 kts | 108° |
| 2026-05-05 20:57 | -8.50503 | 125.95894 | 11357 ft | 401 kts | 109° |
| 2026-05-05 20:57 | -8.51396 | 125.98576 | 11810 ft | 404 kts | 109° |
| 2026-05-05 20:57 | -8.52295 | 126.01282 | 12257 ft | 409 kts | 109° |
| 2026-05-05 20:57 | -8.53207 | 126.04021 | 12652 ft | 414 kts | 109° |
| 2026-05-05 20:58 | -8.54129 | 126.06800 | 13069 ft | 419 kts | 109° |
| 2026-05-05 20:58 | -8.55063 | 126.09613 | 13469 ft | 424 kts | 109° |
| 2026-05-05 20:58 | -8.56006 | 126.12457 | 13836 ft | 430 kts | 109° |
| 2026-05-05 20:58 | -8.56962 | 126.15335 | 14216 ft | 434 kts | 109° |
| 2026-05-05 20:59 | -8.57927 | 126.18237 | 14601 ft | 437 kts | 109° |
| 2026-05-05 20:59 | -8.58571 | 126.20174 | 14846 ft | 439 kts | 109° |
| 2026-05-05 20:59 | -8.59543 | 126.23113 | 15210 ft | 443 kts | 108° |
| 2026-05-05 20:59 | -8.60523 | 126.26074 | 15546 ft | 446 kts | 108° |
| 2026-05-05 21:00 | -8.61510 | 126.29055 | 15937 ft | 448 kts | 108° |
| 2026-05-05 21:00 | -8.62499 | 126.32041 | 16304 ft | 450 kts | 108° |
| 2026-05-05 21:00 | -8.63823 | 126.36024 | 16759 ft | 453 kts | 108° |
| 2026-05-05 21:00 | -8.64505 | 126.38072 | 16972 ft | 455 kts | 108° |
| 2026-05-05 21:01 | -8.65514 | 126.41115 | 17312 ft | 457 kts | 108° |
| 2026-05-05 21:01 | -8.66512 | 126.44131 | 17648 ft | 459 kts | 108° |
| 2026-05-05 21:01 | -8.67525 | 126.47200 | 17949 ft | 461 kts | 108° |
| 2026-05-05 21:01 | -8.68544 | 126.50289 | 18250 ft | 464 kts | 108° |
| 2026-05-05 21:02 | -8.69568 | 126.53395 | 18529 ft | 465 kts | 108° |
| 2026-05-05 21:02 | -8.70592 | 126.56504 | 18802 ft | 467 kts | 108° |
| 2026-05-05 21:02 | -8.71610 | 126.59585 | 19061 ft | 468 kts | 108° |
| 2026-05-05 21:02 | -8.72643 | 126.62710 | 19314 ft | 470 kts | 108° |
| 2026-05-05 21:03 | -8.73681 | 126.65854 | 19563 ft | 471 kts | 108° |
| 2026-05-05 21:03 | -8.74721 | 126.69002 | 19819 ft | 473 kts | 108° |
| 2026-05-05 21:03 | -8.75766 | 126.72163 | 20052 ft | 475 kts | 108° |
| 2026-05-05 21:03 | -8.76818 | 126.75349 | 20271 ft | 476 kts | 108° |
| 2026-05-05 21:04 | -8.77867 | 126.78527 | 20515 ft | 477 kts | 108° |
| 2026-05-05 21:04 | -8.78919 | 126.81715 | 20745 ft | 479 kts | 108° |
| 2026-05-05 21:04 | -8.79975 | 126.84912 | 21001 ft | 479 kts | 108° |
| 2026-05-05 21:04 | -8.81028 | 126.88096 | 21311 ft | 478 kts | 108° |
| 2026-05-05 21:05 | -8.82081 | 126.91289 | 21622 ft | 477 kts | 108° |
| 2026-05-05 21:05 | -8.83115 | 126.94426 | 21907 ft | 477 kts | 108° |
| 2026-05-05 21:05 | -8.84161 | 126.97605 | 22170 ft | 477 kts | 108° |
| 2026-05-05 21:05 | -8.85206 | 127.00784 | 22468 ft | 476 kts | 108° |
| 2026-05-05 21:06 | -8.86250 | 127.03954 | 22813 ft | 474 kts | 108° |
| 2026-05-05 21:06 | -8.87287 | 127.07109 | 23134 ft | 473 kts | 108° |
| 2026-05-05 21:06 | -8.88322 | 127.10266 | 23427 ft | 472 kts | 108° |
| 2026-05-05 21:06 | -8.89359 | 127.13423 | 23691 ft | 471 kts | 109° |
| 2026-05-05 21:07 | -8.90396 | 127.16570 | 23945 ft | 471 kts | 109° |
| 2026-05-05 21:07 | -8.91428 | 127.19710 | 24166 ft | 471 kts | 109° |
| 2026-05-05 21:07 | -8.92458 | 127.22855 | 24365 ft | 472 kts | 109° |
| 2026-05-05 21:07 | -8.93490 | 127.26006 | 24620 ft | 471 kts | 109° |
| 2026-05-05 21:08 | -8.94522 | 127.29149 | 24883 ft | 470 kts | 109° |
| 2026-05-05 21:08 | -8.95554 | 127.32287 | 25115 ft | 471 kts | 109° |
| 2026-05-05 21:08 | -8.96589 | 127.35438 | 25329 ft | 471 kts | 109° |
| 2026-05-05 21:08 | -8.97619 | 127.38578 | 25583 ft | 471 kts | 109° |
| 2026-05-05 21:09 | -8.98650 | 127.41727 | 25857 ft | 470 kts | 109° |
| 2026-05-05 21:09 | -8.99666 | 127.44828 | 26093 ft | 471 kts | 109° |
| 2026-05-05 21:09 | -9.00711 | 127.48017 | 26327 ft | 471 kts | 109° |
| 2026-05-05 21:09 | -9.01729 | 127.51117 | 26580 ft | 471 kts | 109° |
| 2026-05-05 21:10 | -9.02762 | 127.54270 | 26842 ft | 471 kts | 109° |
| 2026-05-05 21:10 | -9.03788 | 127.57420 | 27076 ft | 472 kts | 109° |
| 2026-05-05 21:10 | -9.04816 | 127.60568 | 27338 ft | 471 kts | 109° |
| 2026-05-05 21:10 | -9.05850 | 127.63717 | 27627 ft | 471 kts | 109° |
| 2026-05-05 21:11 | -9.06881 | 127.66862 | 27903 ft | 471 kts | 109° |
| 2026-05-05 21:11 | -9.07911 | 127.70007 | 28178 ft | 471 kts | 109° |
| 2026-05-05 21:11 | -9.08939 | 127.73152 | 28465 ft | 470 kts | 109° |
| 2026-05-05 21:11 | -9.09949 | 127.76296 | 28775 ft | 470 kts | 108° |
| 2026-05-05 21:12 | -9.10935 | 127.79446 | 29077 ft | 470 kts | 108° |
| 2026-05-05 21:12 | -9.11909 | 127.82604 | 29372 ft | 470 kts | 108° |
| 2026-05-05 21:12 | -9.12878 | 127.85761 | 29676 ft | 470 kts | 108° |
| 2026-05-05 21:12 | -9.13849 | 127.88913 | 29981 ft | 469 kts | 108° |
| 2026-05-05 21:13 | -9.14825 | 127.92064 | 30252 ft | 469 kts | 108° |
| 2026-05-05 21:13 | -9.15801 | 127.95211 | 30520 ft | 468 kts | 108° |
| 2026-05-05 21:13 | -9.16777 | 127.98347 | 30799 ft | 468 kts | 108° |
| 2026-05-05 21:13 | -9.17753 | 128.01482 | 31144 ft | 464 kts | 108° |
| 2026-05-05 21:14 | -9.18723 | 128.04599 | 31428 ft | 465 kts | 108° |
| 2026-05-05 21:14 | -9.19695 | 128.07722 | 31697 ft | 465 kts | 108° |
| 2026-05-05 21:14 | -9.20670 | 128.10846 | 31965 ft | 465 kts | 108° |
| 2026-05-05 21:14 | -9.21644 | 128.13966 | 32253 ft | 465 kts | 108° |
| 2026-05-05 21:15 | -9.22615 | 128.17083 | 32556 ft | 464 kts | 108° |
| 2026-05-05 21:15 | -9.23586 | 128.20200 | 32838 ft | 464 kts | 108° |
| 2026-05-05 21:15 | -9.24558 | 128.23320 | 33098 ft | 464 kts | 108° |
| 2026-05-05 21:15 | -9.25514 | 128.26400 | 33364 ft | 464 kts | 108° |
| 2026-05-05 21:16 | -9.26478 | 128.29512 | 33632 ft | 463 kts | 108° |
| 2026-05-05 21:16 | -9.27440 | 128.32625 | 33904 ft | 463 kts | 108° |
| 2026-05-05 21:16 | -9.28402 | 128.35737 | 34140 ft | 462 kts | 108° |
| 2026-05-05 21:16 | -9.29361 | 128.38835 | 34376 ft | 462 kts | 108° |
| 2026-05-05 21:17 | -9.30323 | 128.41932 | 34606 ft | 461 kts | 108° |
| 2026-05-05 21:17 | -9.31283 | 128.45028 | 34820 ft | 461 kts | 108° |
| 2026-05-05 21:17 | -9.33214 | 128.51267 | 34916 ft | 468 kts | 108° |
| 2026-05-05 21:18 | -9.35175 | 128.57601 | 34917 ft | 478 kts | 108° |
| 2026-05-05 21:18 | -9.37188 | 128.64090 | 34915 ft | 487 kts | 108° |
| 2026-05-05 21:19 | -9.39217 | 128.70665 | 34910 ft | 490 kts | 108° |
| 2026-05-05 21:19 | -9.41253 | 128.77252 | 34913 ft | 490 kts | 108° |
| 2026-05-05 21:20 | -9.43281 | 128.83850 | 34915 ft | 490 kts | 108° |
| 2026-05-05 21:20 | -9.45304 | 128.90451 | 34911 ft | 491 kts | 108° |
| 2026-05-05 21:21 | -9.47321 | 128.97018 | 34912 ft | 491 kts | 108° |
| 2026-05-05 21:21 | -9.49369 | 129.03618 | 34916 ft | 492 kts | 108° |
| 2026-05-05 21:22 | -9.51418 | 129.10232 | 34921 ft | 492 kts | 108° |
| 2026-05-05 21:22 | -9.53449 | 129.16848 | 34921 ft | 492 kts | 108° |
| 2026-05-05 21:23 | -9.55478 | 129.23464 | 34922 ft | 492 kts | 108° |
| 2026-05-05 21:23 | -9.57503 | 129.30087 | 34922 ft | 492 kts | 108° |
| 2026-05-05 21:24 | -9.59529 | 129.36714 | 34927 ft | 492 kts | 108° |
| 2026-05-05 21:24 | -9.61544 | 129.43290 | 34929 ft | 492 kts | 108° |
| 2026-05-05 21:25 | -9.63579 | 129.49908 | 34932 ft | 492 kts | 108° |
| 2026-05-05 21:25 | -9.65612 | 129.56529 | 34927 ft | 492 kts | 108° |
| 2026-05-05 21:26 | -9.67635 | 129.63155 | 34925 ft | 493 kts | 108° |
| 2026-05-05 21:26 | -9.69660 | 129.69797 | 34928 ft | 493 kts | 108° |
| 2026-05-05 21:27 | -9.71687 | 129.76431 | 34926 ft | 493 kts | 108° |
| 2026-05-05 21:27 | -9.73718 | 129.83078 | 34925 ft | 493 kts | 108° |
| 2026-05-05 21:28 | -9.75752 | 129.89726 | 34928 ft | 493 kts | 108° |
| 2026-05-05 21:28 | -9.77779 | 129.96377 | 34926 ft | 493 kts | 108° |
| 2026-05-05 21:29 | -9.79790 | 130.02989 | 34923 ft | 494 kts | 108° |
| 2026-05-05 21:29 | -9.81815 | 130.09644 | 34934 ft | 494 kts | 108° |
| 2026-05-05 21:30 | -9.83842 | 130.16309 | 34937 ft | 494 kts | 108° |
| 2026-05-05 21:30 | -9.85861 | 130.22975 | 34936 ft | 494 kts | 108° |
| 2026-05-05 21:31 | -9.87867 | 130.29603 | 34934 ft | 494 kts | 108° |
| 2026-05-05 21:31 | -9.89894 | 130.36277 | 34932 ft | 495 kts | 108° |
| 2026-05-05 21:32 | -9.91920 | 130.42947 | 34945 ft | 494 kts | 108° |
| 2026-05-05 21:32 | -9.93945 | 130.49625 | 34934 ft | 495 kts | 108° |
| 2026-05-05 21:33 | -9.95946 | 130.56258 | 34938 ft | 495 kts | 108° |
| 2026-05-05 21:33 | -9.97965 | 130.62939 | 34939 ft | 495 kts | 108° |
| 2026-05-05 21:34 | -9.99992 | 130.69622 | 34940 ft | 495 kts | 108° |
| 2026-05-05 21:34 | -10.02014 | 130.76305 | 34942 ft | 496 kts | 108° |
| 2026-05-05 21:35 | -10.04025 | 130.82994 | 34946 ft | 495 kts | 108° |
| 2026-05-05 21:35 | -10.06034 | 130.89688 | 34941 ft | 495 kts | 108° |
| 2026-05-05 21:36 | -10.08042 | 130.96378 | 34941 ft | 496 kts | 108° |
| 2026-05-05 21:36 | -10.10048 | 131.03024 | 34945 ft | 496 kts | 108° |
| 2026-05-05 21:37 | -10.12070 | 131.09715 | 34943 ft | 496 kts | 108° |
| 2026-05-05 21:37 | -10.14087 | 131.16414 | 34947 ft | 496 kts | 108° |
| 2026-05-05 21:38 | -10.16098 | 131.23119 | 34940 ft | 497 kts | 108° |
| 2026-05-05 21:38 | -10.18108 | 131.29830 | 34946 ft | 497 kts | 108° |
| 2026-05-05 21:39 | -10.20109 | 131.36506 | 34945 ft | 497 kts | 107° |
| 2026-05-05 21:39 | -10.22124 | 131.43229 | 34947 ft | 497 kts | 107° |
| 2026-05-05 21:40 | -10.24135 | 131.49958 | 34945 ft | 497 kts | 107° |
| 2026-05-05 21:40 | -10.26145 | 131.56679 | 34947 ft | 497 kts | 107° |
| 2026-05-05 21:41 | -10.28161 | 131.63405 | 34939 ft | 498 kts | 107° |
| 2026-05-05 21:41 | -10.30167 | 131.70138 | 34939 ft | 498 kts | 107° |
| 2026-05-05 21:42 | -10.32174 | 131.76881 | 34948 ft | 499 kts | 107° |
| 2026-05-05 21:42 | -10.34186 | 131.83620 | 34944 ft | 499 kts | 107° |
| 2026-05-05 21:43 | -10.36198 | 131.90368 | 34941 ft | 499 kts | 107° |
| 2026-05-05 21:43 | -10.38206 | 131.97128 | 34948 ft | 500 kts | 107° |
| 2026-05-05 21:44 | -10.40203 | 132.03849 | 34950 ft | 500 kts | 107° |
| 2026-05-05 21:44 | -10.42216 | 132.10616 | 34951 ft | 500 kts | 107° |
| 2026-05-05 21:45 | -10.44221 | 132.17386 | 34947 ft | 500 kts | 107° |
| 2026-05-05 21:45 | -10.46226 | 132.24158 | 34952 ft | 501 kts | 107° |
| 2026-05-05 21:46 | -10.48234 | 132.30939 | 34955 ft | 501 kts | 107° |
| 2026-05-05 21:46 | -10.50246 | 132.37718 | 34959 ft | 501 kts | 107° |
| 2026-05-05 21:47 | -10.52255 | 132.44497 | 34953 ft | 501 kts | 107° |
| 2026-05-05 21:47 | -10.54252 | 132.51243 | 34959 ft | 501 kts | 107° |
| 2026-05-05 21:48 | -10.56254 | 132.58036 | 34958 ft | 501 kts | 107° |
| 2026-05-05 21:48 | -10.57926 | 132.63685 | 34956 ft | 502 kts | 107° |
| 2026-05-05 21:49 | -10.59923 | 132.70474 | 34962 ft | 502 kts | 107° |
| 2026-05-05 21:49 | -10.61925 | 132.77284 | 34957 ft | 502 kts | 107° |
| 2026-05-05 21:50 | -10.63932 | 132.84098 | 34963 ft | 502 kts | 107° |
| 2026-05-05 21:50 | -10.65932 | 132.90904 | 34960 ft | 503 kts | 107° |
| 2026-05-05 21:51 | -10.67921 | 132.97670 | 34969 ft | 503 kts | 107° |
| 2026-05-05 21:51 | -10.69920 | 133.04488 | 34967 ft | 503 kts | 107° |
| 2026-05-05 21:52 | -10.72919 | 133.14710 | 34976 ft | 503 kts | 107° |
| 2026-05-05 21:53 | -10.74919 | 133.21525 | 34974 ft | 503 kts | 107° |
| 2026-05-05 21:53 | -10.76231 | 133.28482 | 34967 ft | 501 kts | 92° |
| 2026-05-05 21:54 | -10.76531 | 133.35566 | 34970 ft | 501 kts | 92° |
| 2026-05-05 21:54 | -10.76850 | 133.42651 | 34968 ft | 501 kts | 92° |
| 2026-05-05 21:55 | -10.77167 | 133.49731 | 34970 ft | 501 kts | 92° |
| 2026-05-05 21:55 | -10.77471 | 133.56809 | 34965 ft | 500 kts | 91° |
| 2026-05-05 21:56 | -10.77768 | 133.63877 | 34958 ft | 500 kts | 91° |
| 2026-05-05 21:56 | -10.78075 | 133.70941 | 34962 ft | 500 kts | 91° |
| 2026-05-05 21:57 | -10.78375 | 133.78000 | 34962 ft | 499 kts | 91° |
| 2026-05-05 21:57 | -10.78672 | 133.85016 | 34962 ft | 499 kts | 91° |
| 2026-05-05 21:58 | -10.78969 | 133.92110 | 34956 ft | 499 kts | 91° |
| 2026-05-05 21:58 | -10.79257 | 133.99105 | 34960 ft | 498 kts | 91° |
| 2026-05-05 21:59 | -10.79558 | 134.06143 | 34971 ft | 497 kts | 91° |
| 2026-05-05 21:59 | -10.79855 | 134.13168 | 34972 ft | 497 kts | 91° |
| 2026-05-05 22:00 | -10.80143 | 134.20192 | 34968 ft | 497 kts | 91° |
| 2026-05-05 22:00 | -10.80423 | 134.27202 | 34964 ft | 496 kts | 90° |
| 2026-05-05 22:01 | -10.80703 | 134.34205 | 34964 ft | 496 kts | 91° |
| 2026-05-05 22:01 | -10.80997 | 134.41213 | 34963 ft | 496 kts | 91° |
| 2026-05-05 22:02 | -10.81290 | 134.48230 | 34967 ft | 496 kts | 91° |
| 2026-05-05 22:02 | -10.81568 | 134.55238 | 34966 ft | 496 kts | 90° |
| 2026-05-05 22:03 | -10.81841 | 134.62197 | 34969 ft | 496 kts | 90° |
| 2026-05-05 22:03 | -10.82122 | 134.69202 | 34971 ft | 495 kts | 90° |
| 2026-05-05 22:04 | -10.82392 | 134.76204 | 34969 ft | 495 kts | 90° |
| 2026-05-05 22:04 | -10.82670 | 134.83192 | 34963 ft | 494 kts | 90° |
| 2026-05-05 22:05 | -10.82944 | 134.90179 | 34970 ft | 494 kts | 90° |
| 2026-05-05 22:05 | -10.83212 | 134.97161 | 34966 ft | 494 kts | 90° |
| 2026-05-05 22:06 | -10.83488 | 135.04152 | 34969 ft | 495 kts | 90° |
| 2026-05-05 22:06 | -10.83751 | 135.11147 | 34968 ft | 495 kts | 90° |
| 2026-05-05 22:07 | -10.84013 | 135.18134 | 34970 ft | 494 kts | 90° |
| 2026-05-05 22:07 | -10.84278 | 135.25119 | 34970 ft | 494 kts | 90° |
| 2026-05-05 22:08 | -10.84549 | 135.32106 | 34968 ft | 494 kts | 90° |
| 2026-05-05 22:08 | -10.84812 | 135.39097 | 34967 ft | 494 kts | 90° |
| 2026-05-05 22:09 | -10.85065 | 135.46090 | 34964 ft | 494 kts | 90° |
| 2026-05-05 22:09 | -10.85316 | 135.53022 | 34963 ft | 494 kts | 90° |
| 2026-05-05 22:10 | -10.85572 | 135.60017 | 34963 ft | 494 kts | 90° |
| 2026-05-05 22:10 | -10.85831 | 135.67001 | 34961 ft | 494 kts | 90° |
| 2026-05-05 22:11 | -10.86088 | 135.73990 | 34963 ft | 494 kts | 90° |
| 2026-05-05 22:11 | -10.86346 | 135.80987 | 34964 ft | 494 kts | 90° |
| 2026-05-05 22:12 | -10.86598 | 135.87976 | 34963 ft | 494 kts | 90° |
| 2026-05-05 22:12 | -10.86817 | 135.94970 | 34965 ft | 495 kts | 90° |
| 2026-05-05 22:13 | -10.87009 | 136.01964 | 34973 ft | 495 kts | 90° |
| 2026-05-05 22:13 | -10.87201 | 136.08961 | 34968 ft | 495 kts | 90° |
| 2026-05-05 22:14 | -10.87403 | 136.15926 | 34970 ft | 495 kts | 90° |
| 2026-05-05 22:14 | -10.87603 | 136.22921 | 34975 ft | 494 kts | 90° |
| 2026-05-05 22:15 | -10.87811 | 136.29914 | 34971 ft | 494 kts | 90° |
| 2026-05-05 22:15 | -10.88019 | 136.36896 | 34976 ft | 493 kts | 90° |
| 2026-05-05 22:16 | -10.88217 | 136.43871 | 34980 ft | 493 kts | 90° |
| 2026-05-05 22:16 | -10.88406 | 136.50835 | 34980 ft | 492 kts | 90° |
| 2026-05-05 22:17 | -10.88589 | 136.57750 | 34977 ft | 492 kts | 90° |
| 2026-05-05 22:17 | -10.88776 | 136.64704 | 34975 ft | 492 kts | 90° |
| 2026-05-05 22:18 | -10.88974 | 136.71630 | 34974 ft | 492 kts | 90° |
| 2026-05-05 22:18 | -10.89168 | 136.78588 | 34978 ft | 492 kts | 90° |
| 2026-05-05 22:19 | -10.89348 | 136.85540 | 34979 ft | 492 kts | 90° |
| 2026-05-05 22:19 | -10.89526 | 136.92498 | 34979 ft | 492 kts | 90° |
| 2026-05-05 22:20 | -10.89717 | 136.99413 | 34996 ft | 492 kts | 90° |
| 2026-05-05 22:20 | -10.89900 | 137.06376 | 34986 ft | 492 kts | 90° |
| 2026-05-05 22:21 | -10.90081 | 137.13341 | 34981 ft | 492 kts | 90° |
| 2026-05-05 22:21 | -10.90266 | 137.20312 | 34980 ft | 493 kts | 90° |
| 2026-05-05 22:22 | -10.90442 | 137.27283 | 34977 ft | 493 kts | 90° |
| 2026-05-05 22:22 | -10.90614 | 137.34251 | 34981 ft | 493 kts | 90° |
| 2026-05-05 22:23 | -10.90785 | 137.41220 | 34981 ft | 492 kts | 90° |
| 2026-05-05 22:23 | -10.90952 | 137.48179 | 34982 ft | 492 kts | 90° |
| 2026-05-05 22:24 | -10.91114 | 137.55146 | 34980 ft | 492 kts | 90° |
| 2026-05-05 22:24 | -10.91283 | 137.62104 | 34976 ft | 492 kts | 90° |
| 2026-05-05 22:25 | -10.91460 | 137.69059 | 34983 ft | 492 kts | 90° |
| 2026-05-05 22:25 | -10.91632 | 137.76031 | 34986 ft | 492 kts | 90° |
| 2026-05-05 22:26 | -10.91792 | 137.82940 | 34987 ft | 492 kts | 90° |
| 2026-05-05 22:26 | -10.91950 | 137.89888 | 34986 ft | 491 kts | 90° |
| 2026-05-05 22:27 | -10.92104 | 137.96840 | 34987 ft | 491 kts | 90° |
| 2026-05-05 22:27 | -10.92265 | 138.03787 | 34988 ft | 491 kts | 90° |
| 2026-05-05 22:28 | -10.92429 | 138.10737 | 34977 ft | 491 kts | 90° |
| 2026-05-05 22:28 | -10.92593 | 138.17685 | 34986 ft | 491 kts | 90° |
| 2026-05-05 22:29 | -10.92749 | 138.24626 | 34980 ft | 491 kts | 90° |
| 2026-05-05 22:29 | -10.92898 | 138.31567 | 34980 ft | 491 kts | 90° |
| 2026-05-05 22:30 | -10.93044 | 138.38504 | 34982 ft | 491 kts | 90° |
| 2026-05-05 22:30 | -10.93196 | 138.45452 | 34985 ft | 491 kts | 90° |
| 2026-05-05 22:31 | -10.93347 | 138.52393 | 34986 ft | 491 kts | 90° |
| 2026-05-05 22:31 | -10.93489 | 138.59331 | 34983 ft | 490 kts | 90° |
| 2026-05-05 22:32 | -10.93632 | 138.66263 | 34980 ft | 490 kts | 90° |
| 2026-05-05 22:32 | -10.93772 | 138.73201 | 34979 ft | 490 kts | 90° |
| 2026-05-05 22:33 | -10.93917 | 138.80136 | 34977 ft | 491 kts | 90° |
| 2026-05-05 22:33 | -10.94064 | 138.87076 | 34977 ft | 491 kts | 90° |
| 2026-05-05 22:34 | -10.94207 | 138.94018 | 34984 ft | 491 kts | 90° |
| 2026-05-05 22:34 | -10.94341 | 139.00958 | 34986 ft | 491 kts | 90° |
| 2026-05-05 22:35 | -10.94449 | 139.06724 | 34984 ft | 490 kts | 90° |
| 2026-05-05 22:35 | -10.94582 | 139.13657 | 34971 ft | 490 kts | 90° |
| 2026-05-05 22:36 | -10.94716 | 139.20607 | 34981 ft | 490 kts | 90° |
| 2026-05-05 22:36 | -10.94850 | 139.27553 | 34984 ft | 491 kts | 89° |
| 2026-05-05 22:37 | -10.94982 | 139.34456 | 34984 ft | 491 kts | 89° |
| 2026-05-05 22:37 | -10.95106 | 139.41397 | 34986 ft | 491 kts | 89° |
| 2026-05-05 22:38 | -10.95228 | 139.48349 | 34990 ft | 491 kts | 89° |
| 2026-05-05 22:38 | -10.95353 | 139.55300 | 34997 ft | 491 kts | 89° |
| 2026-05-05 22:39 | -10.95479 | 139.62254 | 34992 ft | 491 kts | 89° |
| 2026-05-05 22:39 | -10.95597 | 139.69215 | 34990 ft | 491 kts | 90° |
| 2026-05-05 22:40 | -10.95721 | 139.76170 | 34992 ft | 491 kts | 90° |
| 2026-05-05 22:40 | -10.95843 | 139.83082 | 34981 ft | 491 kts | 90° |
| 2026-05-05 22:41 | -10.95961 | 139.90036 | 34990 ft | 491 kts | 89° |
| 2026-05-05 22:41 | -10.96074 | 139.96982 | 34996 ft | 491 kts | 90° |
| 2026-05-05 22:42 | -10.96184 | 140.03929 | 34992 ft | 491 kts | 89° |
| 2026-05-05 22:42 | -10.96295 | 140.10888 | 34991 ft | 491 kts | 90° |
| 2026-05-05 22:43 | -10.96273 | 140.17860 | 34980 ft | 490 kts | 83° |
| 2026-05-05 22:43 | -10.95184 | 140.24640 | 34987 ft | 489 kts | 78° |
| 2026-05-05 22:44 | -10.93998 | 140.31459 | 34984 ft | 489 kts | 78° |
| 2026-05-05 22:44 | -10.92823 | 140.38291 | 34986 ft | 489 kts | 78° |
| 2026-05-05 22:45 | -10.91645 | 140.45113 | 34988 ft | 490 kts | 78° |
| 2026-05-05 22:45 | -10.90464 | 140.51935 | 34990 ft | 490 kts | 78° |
| 2026-05-05 22:46 | -10.89296 | 140.58729 | 34991 ft | 490 kts | 78° |
| 2026-05-05 22:46 | -10.88106 | 140.65555 | 34992 ft | 490 kts | 78° |
| 2026-05-05 22:47 | -10.86908 | 140.72390 | 34995 ft | 490 kts | 78° |
| 2026-05-05 22:47 | -10.85716 | 140.79234 | 34995 ft | 490 kts | 78° |
| 2026-05-05 22:48 | -10.84525 | 140.86060 | 34995 ft | 490 kts | 78° |
| 2026-05-05 22:48 | -10.83334 | 140.92889 | 34994 ft | 490 kts | 78° |
| 2026-05-05 22:49 | -10.82144 | 140.99709 | 34999 ft | 489 kts | 78° |
| 2026-05-05 22:49 | -10.80965 | 141.06479 | 34999 ft | 489 kts | 78° |
| 2026-05-05 22:50 | -10.79767 | 141.13283 | 34994 ft | 489 kts | 75° |
| 2026-05-05 22:50 | -10.78575 | 141.20093 | 34989 ft | 488 kts | 78° |
| 2026-05-05 22:51 | -10.77389 | 141.26846 | 34994 ft | 488 kts | 78° |
| 2026-05-05 22:51 | -10.76187 | 141.33664 | 34995 ft | 488 kts | 78° |
| 2026-05-05 22:52 | -10.74991 | 141.40469 | 34995 ft | 488 kts | 78° |
| 2026-05-05 22:52 | -10.73790 | 141.47259 | 34993 ft | 488 kts | 78° |
| 2026-05-05 22:53 | -10.72593 | 141.54043 | 34989 ft | 487 kts | 78° |
| 2026-05-05 22:53 | -10.71399 | 141.60825 | 34988 ft | 487 kts | 78° |
| 2026-05-05 22:54 | -10.70192 | 141.67608 | 34990 ft | 487 kts | 78° |
| 2026-05-05 22:54 | -10.68992 | 141.74380 | 34980 ft | 487 kts | 78° |
| 2026-05-05 22:55 | -10.67792 | 141.81163 | 34991 ft | 487 kts | 78° |
| 2026-05-05 22:55 | -10.66586 | 141.87927 | 34998 ft | 486 kts | 78° |
| 2026-05-05 22:56 | -10.65378 | 141.94683 | 34999 ft | 485 kts | 78° |
| 2026-05-05 22:56 | -10.64193 | 142.01378 | 34987 ft | 484 kts | 78° |
| 2026-05-05 22:57 | -10.62989 | 142.08117 | 34976 ft | 484 kts | 78° |
| 2026-05-05 22:57 | -10.61787 | 142.14845 | 34967 ft | 484 kts | 78° |
| 2026-05-05 22:58 | -10.60579 | 142.21582 | 34961 ft | 484 kts | 78° |
| 2026-05-05 22:58 | -10.59368 | 142.28313 | 34959 ft | 484 kts | 78° |
| 2026-05-05 22:59 | -10.58035 | 142.35014 | 34954 ft | 483 kts | 76° |
| 2026-05-05 22:59 | -10.56507 | 142.41662 | 34965 ft | 483 kts | 75° |
| 2026-05-05 23:00 | -10.54212 | 142.51638 | 34984 ft | 483 kts | 75° |
| 2026-05-05 23:00 | -10.52732 | 142.58257 | 34982 ft | 484 kts | 75° |
| 2026-05-05 23:01 | -10.51248 | 142.64968 | 34980 ft | 484 kts | 76° |
| 2026-05-05 23:01 | -10.49784 | 142.71601 | 34974 ft | 484 kts | 75° |
| 2026-05-05 23:02 | -10.48300 | 142.78272 | 34988 ft | 484 kts | 75° |
| 2026-05-05 23:02 | -10.46801 | 142.84942 | 34976 ft | 485 kts | 75° |
| 2026-05-05 23:03 | -10.45302 | 142.91621 | 34981 ft | 485 kts | 75° |
| 2026-05-05 23:03 | -10.43802 | 142.98301 | 34984 ft | 485 kts | 75° |
| 2026-05-05 23:04 | -10.42308 | 143.04986 | 34977 ft | 486 kts | 75° |
| 2026-05-05 23:04 | -10.40806 | 143.11678 | 34981 ft | 486 kts | 75° |
| 2026-05-05 23:05 | -10.39301 | 143.18372 | 34969 ft | 486 kts | 75° |
| 2026-05-05 23:05 | -10.37791 | 143.25067 | 34982 ft | 486 kts | 75° |
| 2026-05-05 23:06 | -10.36278 | 143.31773 | 34973 ft | 487 kts | 75° |
| 2026-05-05 23:06 | -10.34767 | 143.38484 | 34980 ft | 487 kts | 75° |
| 2026-05-05 23:07 | -10.33270 | 143.45148 | 34983 ft | 487 kts | 75° |
| 2026-05-05 23:07 | -10.31756 | 143.51854 | 34980 ft | 487 kts | 75° |
| 2026-05-05 23:08 | -10.30232 | 143.58550 | 34985 ft | 487 kts | 75° |
| 2026-05-05 23:08 | -10.28710 | 143.65250 | 34988 ft | 486 kts | 75° |
| 2026-05-05 23:09 | -10.27200 | 143.71946 | 34989 ft | 486 kts | 75° |
| 2026-05-05 23:09 | -10.25682 | 143.78640 | 34987 ft | 486 kts | 75° |
| 2026-05-05 23:10 | -10.24161 | 143.85333 | 34986 ft | 486 kts | 75° |
| 2026-05-05 23:10 | -10.22651 | 143.91981 | 34986 ft | 486 kts | 75° |
| 2026-05-05 23:11 | -10.21124 | 143.98680 | 34987 ft | 486 kts | 75° |
| 2026-05-05 23:11 | -10.19588 | 144.05371 | 34987 ft | 486 kts | 75° |
| 2026-05-05 23:12 | -10.18048 | 144.12053 | 34988 ft | 486 kts | 75° |
| 2026-05-05 23:12 | -10.16514 | 144.18740 | 34982 ft | 486 kts | 75° |
| 2026-05-05 23:13 | -10.14973 | 144.25429 | 34976 ft | 486 kts | 75° |
| 2026-05-05 23:13 | -10.13433 | 144.32115 | 34977 ft | 486 kts | 75° |
| 2026-05-05 23:14 | -10.11897 | 144.38799 | 34979 ft | 486 kts | 75° |
| 2026-05-05 23:14 | -10.10365 | 144.45442 | 34980 ft | 486 kts | 75° |
| 2026-05-05 23:15 | -10.08818 | 144.52114 | 34980 ft | 486 kts | 75° |
| 2026-05-05 23:15 | -10.07267 | 144.58790 | 34978 ft | 486 kts | 75° |
| 2026-05-05 23:16 | -10.05722 | 144.65470 | 34980 ft | 486 kts | 75° |
| 2026-05-05 23:16 | -10.04175 | 144.72142 | 34977 ft | 486 kts | 75° |
| 2026-05-05 23:17 | -10.02629 | 144.78814 | 34972 ft | 486 kts | 75° |
| 2026-05-05 23:17 | -10.01087 | 144.85486 | 34972 ft | 485 kts | 75° |
| 2026-05-05 23:18 | -9.99554 | 144.92102 | 34968 ft | 485 kts | 75° |
| 2026-05-05 23:18 | -9.97994 | 144.98761 | 34965 ft | 485 kts | 75° |
| 2026-05-05 23:19 | -9.96439 | 145.05424 | 34967 ft | 485 kts | 75° |
| 2026-05-05 23:19 | -9.94890 | 145.12096 | 34967 ft | 486 kts | 75° |
| 2026-05-05 23:20 | -9.93333 | 145.18770 | 34962 ft | 486 kts | 75° |
| 2026-05-05 23:20 | -9.91783 | 145.25429 | 34972 ft | 485 kts | 75° |
| 2026-05-05 23:21 | -9.90231 | 145.32075 | 34976 ft | 484 kts | 74° |
| 2026-05-05 23:21 | -9.88675 | 145.38708 | 34975 ft | 483 kts | 75° |
| 2026-05-05 23:22 | -9.87132 | 145.45301 | 34973 ft | 483 kts | 75° |
| 2026-05-05 23:22 | -9.85580 | 145.51926 | 34969 ft | 483 kts | 75° |
| 2026-05-05 23:23 | -9.84028 | 145.58554 | 34968 ft | 483 kts | 75° |
| 2026-05-05 23:23 | -9.82473 | 145.65177 | 34967 ft | 483 kts | 75° |
| 2026-05-05 23:24 | -9.81174 | 145.70693 | 34962 ft | 483 kts | 73° |
| 2026-05-05 23:24 | -9.80037 | 145.73875 | 34958 ft | 478 kts | 60° |
| 2026-05-05 23:24 | -9.78297 | 145.76733 | 34961 ft | 476 kts | 54° |
| 2026-05-05 23:25 | -9.74617 | 145.82317 | 34961 ft | 476 kts | 54° |
| 2026-05-05 23:25 | -9.70910 | 145.87888 | 34962 ft | 477 kts | 54° |
| 2026-05-05 23:26 | -9.69062 | 145.90674 | 34840 ft | 477 kts | 55° |
| 2026-05-05 23:26 | -9.67207 | 145.93479 | 33823 ft | 483 kts | 55° |
| 2026-05-05 23:26 | -9.65350 | 145.96289 | 32857 ft | 485 kts | 56° |
| 2026-05-05 23:26 | -9.63472 | 145.99134 | 31899 ft | 487 kts | 56° |
| 2026-05-05 23:27 | -9.61581 | 146.01997 | 30932 ft | 490 kts | 56° |
| 2026-05-05 23:27 | -9.59683 | 146.04869 | 29967 ft | 491 kts | 56° |
| 2026-05-05 23:27 | -9.57774 | 146.07756 | 28776 ft | 494 kts | 56° |
| 2026-05-05 23:27 | -9.55862 | 146.10642 | 27665 ft | 494 kts | 56° |
| 2026-05-05 23:28 | -9.53942 | 146.13537 | 26489 ft | 494 kts | 56° |
| 2026-05-05 23:28 | -9.52019 | 146.16439 | 25279 ft | 496 kts | 56° |
| 2026-05-05 23:28 | -9.50094 | 146.19347 | 24100 ft | 496 kts | 55° |
| 2026-05-05 23:28 | -9.48178 | 146.22240 | 23013 ft | 493 kts | 55° |
| 2026-05-05 23:29 | -9.46289 | 146.25093 | 22200 ft | 483 kts | 55° |
| 2026-05-05 23:29 | -9.44427 | 146.27900 | 21255 ft | 477 kts | 55° |
| 2026-05-05 23:29 | -9.42586 | 146.30673 | 20345 ft | 472 kts | 56° |
| 2026-05-05 23:29 | -9.40764 | 146.33421 | 19497 ft | 467 kts | 56° |
| 2026-05-05 23:30 | -9.39009 | 146.36160 | 18709 ft | 461 kts | 60° |
| 2026-05-05 23:30 | -9.37679 | 146.39053 | 17908 ft | 457 kts | 69° |
| 2026-05-05 23:30 | -9.36824 | 146.42133 | 17046 ft | 451 kts | 77° |
| 2026-05-05 23:30 | -9.36137 | 146.45215 | 16204 ft | 445 kts | 77° |
| 2026-05-05 23:31 | -9.35463 | 146.48233 | 15102 ft | 433 kts | 77° |
| 2026-05-05 23:31 | -9.34806 | 146.51178 | 13939 ft | 424 kts | 77° |
| 2026-05-05 23:31 | -9.34167 | 146.54030 | 13190 ft | 405 kts | 77° |
| 2026-05-05 23:31 | -9.33558 | 146.56740 | 12499 ft | 386 kts | 77° |
| 2026-05-05 23:32 | -9.32964 | 146.59370 | 11847 ft | 385 kts | 77° |
| 2026-05-05 23:32 | -9.32365 | 146.62026 | 11283 ft | 383 kts | 77° |
| 2026-05-05 23:32 | -9.31757 | 146.64587 | 11154 ft | 366 kts | 75° |
| 2026-05-05 23:32 | -9.31082 | 146.67016 | 11034 ft | 350 kts | 73° |
| 2026-05-05 23:33 | -9.30375 | 146.69320 | 10913 ft | 336 kts | 72° |
| 2026-05-05 23:33 | -9.29680 | 146.71504 | 10796 ft | 324 kts | 72° |
| 2026-05-05 23:33 | -9.28999 | 146.73639 | 10682 ft | 313 kts | 72° |
| 2026-05-05 23:33 | -9.28349 | 146.75705 | 10526 ft | 304 kts | 72° |
| 2026-05-05 23:34 | -9.27725 | 146.77729 | 10379 ft | 297 kts | 72° |
| 2026-05-05 23:34 | -9.27116 | 146.79731 | 10258 ft | 298 kts | 72° |
| 2026-05-05 23:34 | -9.26510 | 146.81734 | 10136 ft | 297 kts | 73° |
| 2026-05-05 23:34 | -9.25908 | 146.83734 | 10004 ft | 297 kts | 73° |
| 2026-05-05 23:35 | -9.25303 | 146.85746 | 9521 ft | 303 kts | 73° |
| 2026-05-05 23:35 | -9.24694 | 146.87771 | 9250 ft | 298 kts | 73° |
| 2026-05-05 23:35 | -9.24092 | 146.89763 | 8788 ft | 291 kts | 72° |
| 2026-05-05 23:35 | -9.23523 | 146.91653 | 8619 ft | 273 kts | 72° |
| 2026-05-05 23:36 | -9.22976 | 146.93460 | 8287 ft | 263 kts | 72° |
| 2026-05-05 23:36 | -9.22454 | 146.95190 | 7978 ft | 253 kts | 72° |
| 2026-05-05 23:36 | -9.21944 | 146.96886 | 7539 ft | 251 kts | 72° |
| 2026-05-05 23:36 | -9.21438 | 146.98565 | 7084 ft | 249 kts | 72° |
| 2026-05-05 23:37 | -9.20935 | 147.00236 | 6640 ft | 247 kts | 71° |
| 2026-05-05 23:37 | -9.20435 | 147.01889 | 6220 ft | 244 kts | 71° |
| 2026-05-05 23:37 | -9.19974 | 147.03480 | 6037 ft | 231 kts | 77° |
| 2026-05-05 23:37 | -9.19900 | 147.05111 | 5460 ft | 236 kts | 98° |
| 2026-05-05 23:38 | -9.20417 | 147.06665 | 5119 ft | 230 kts | 120° |
| 2026-05-05 23:38 | -9.21399 | 147.07905 | 4863 ft | 225 kts | 139° |
| 2026-05-05 23:38 | -9.22674 | 147.08781 | 4605 ft | 225 kts | 148° |
| 2026-05-05 23:38 | -9.24004 | 147.09601 | 4330 ft | 223 kts | 148° |
| 2026-05-05 23:39 | -9.25310 | 147.10407 | 4019 ft | 219 kts | 148° |
| 2026-05-05 23:39 | -9.26591 | 147.11198 | 3733 ft | 212 kts | 148° |
| 2026-05-05 23:39 | -9.27817 | 147.11955 | 3463 ft | 201 kts | 148° |
| 2026-05-05 23:39 | -9.28986 | 147.12677 | 3222 ft | 192 kts | 148° |
| 2026-05-05 23:40 | -9.30079 | 147.13352 | 2974 ft | 175 kts | 148° |
| 2026-05-05 23:40 | -9.31089 | 147.13976 | 2769 ft | 170 kts | 148° |
| 2026-05-05 23:40 | -9.32106 | 147.14604 | 2559 ft | 171 kts | 148° |
| 2026-05-05 23:40 | -9.33119 | 147.15229 | 2336 ft | 170 kts | 148° |
| 2026-05-05 23:41 | -9.34123 | 147.15849 | 2109 ft | 165 kts | 148° |
| 2026-05-05 23:41 | -9.35062 | 147.16429 | 1918 ft | 153 kts | 148° |
| 2026-05-05 23:41 | -9.35949 | 147.16977 | 1723 ft | 147 kts | 148° |
| 2026-05-05 23:41 | -9.36814 | 147.17512 | 1534 ft | 145 kts | 148° |
| 2026-05-05 23:42 | -9.37673 | 147.18043 | 1357 ft | 144 kts | 149° |
| 2026-05-05 23:42 | -9.38523 | 147.18568 | 1173 ft | 142 kts | 148° |
| 2026-05-05 23:42 | -9.39365 | 147.19090 | 985 ft | 141 kts | 148° |
| 2026-05-05 23:42 | -9.40182 | 147.19602 | 812 ft | 141 kts | 148° |
| 2026-05-05 23:43 | -9.41014 | 147.20116 | 622 ft | 139 kts | 149° |
| 2026-05-05 23:43 | -9.41842 | 147.20622 | 472 ft | 139 kts | 148° |
| 2026-05-05 23:43 | -9.42670 | 147.21130 | 270 ft | 139 kts | 149° |
| 2026-05-05 23:43 | -9.43468 | 147.21626 | 110 ft | 122 kts | 149° |
| 2026-05-05 23:44 | -9.43974 | 147.21934 | 110 ft | 50 kts | 148° |
| 2026-05-05 23:44 | -9.44264 | 147.22115 | 111 ft | 51 kts | 148° |
| 2026-05-05 23:44 | -9.44476 | 147.22227 | 107 ft | 10 kts | 200° |
| 2026-05-05 23:44 | -9.44502 | 147.22165 | 107 ft | 15 kts | 251° |
| 2026-05-05 23:45 | -9.44570 | 147.22059 | 106 ft | 20 kts | 236° |
| 2026-05-05 23:45 | -9.44642 | 147.21934 | 108 ft | 15 kts | 249° |
| 2026-05-05 23:45 | -9.44584 | 147.21855 | 108 ft | 16 kts | 330° |
| 2026-05-05 23:45 | -9.44485 | 147.21793 | 106 ft | 18 kts | 327° |
| 2026-05-05 23:46 | -9.44374 | 147.21721 | 106 ft | 20 kts | 329° |
| 2026-05-05 23:46 | -9.44225 | 147.21630 | 104 ft | 38 kts | 329° |
| 2026-05-05 23:46 | -9.43972 | 147.21476 | 104 ft | 41 kts | 329° |
| 2026-05-05 23:46 | -9.43843 | 147.21370 | 105 ft | 11 kts | 268° |
| 2026-05-05 23:47 | -9.43829 | 147.21286 | 108 ft | 15 kts | 322° |
| 2026-05-05 23:47 | -9.43797 | 147.21219 | 108 ft | 11 kts | 256° |
| 2026-05-05 23:47 | -9.43822 | 147.21175 | 106 ft | 0 kts | 236° |